createdAt,value
2022-09-28T05:01:17.936Z,10.3
2022-09-28T05:06:46.046Z,10.9
2022-09-28T05:12:12.338Z,11.5
2022-09-28T05:17:36.622Z,11.9
2022-09-28T05:22:59.784Z,12.4
2022-09-28T05:28:23.531Z,13.7
2022-09-28T05:33:32.672Z,15.8
2022-09-28T05:38:55.964Z,18.3
2022-09-28T05:44:17.950Z,20.8
2022-09-28T05:49:39.781Z,23.5
2022-09-28T05:55:02.394Z,26.5
2022-09-28T06:00:24.409Z,29.3
2022-09-28T06:05:46.992Z,29.9
2022-09-28T06:11:11.259Z,30
2022-09-28T06:16:33.678Z,29.7
2022-09-28T06:21:57.518Z,29.1
2022-09-28T06:27:08.938Z,28.6
2022-09-28T06:32:31.874Z,27.9
2022-09-28T06:37:53.725Z,27.9
2022-09-28T06:43:16.862Z,31.3
2022-09-28T06:48:40.795Z,31.7
2022-09-28T06:54:08.566Z,30.9
2022-09-28T06:59:31.155Z,31.6
2022-09-28T07:04:53.040Z,33.7
2022-09-28T07:10:47.957Z,35.3
2022-09-28T07:17:29.415Z,36.3
2022-09-28T07:24:23.508Z,35.4
2022-09-28T07:29:49.295Z,31.9
2022-09-28T07:35:16.535Z,35.3
2022-09-28T07:40:38.053Z,45.1
2022-09-28T07:46:03.354Z,42.7
2022-09-28T07:51:32.687Z,44.8
2022-09-28T07:56:39.706Z,47.1
2022-09-28T08:02:03.553Z,46.4
2022-09-28T08:07:26.748Z,43.3
2022-09-28T08:12:51.083Z,47.3
2022-09-28T08:18:20.692Z,47.9
2022-09-28T08:23:46.042Z,41.9
2022-09-28T08:29:09.552Z,45.3
2022-09-28T08:34:37.431Z,45.1
2022-09-28T08:40:00.359Z,41.6
2022-09-28T08:45:23.303Z,48.6
2022-09-28T08:51:15.759Z,49
2022-09-28T08:56:54.208Z,44.6
2022-09-28T09:02:32.597Z,49.3
2022-09-28T09:08:10.477Z,53.1
2022-09-28T17:16:03.291Z,20.2
2022-09-28T17:22:13.650Z,20.1
2022-09-28T17:27:51.200Z,20.1
2022-09-28T17:33:33.243Z,19.9
2022-09-28T17:39:39.203Z,19.6
2022-09-28T17:45:02.523Z,19.4
2022-09-28T17:50:46.355Z,19.1
2022-09-28T18:01:38.003Z,18.4
2022-09-28T18:07:46.751Z,18.2
2022-09-28T18:13:26.347Z,17.8
2022-09-28T18:19:04.884Z,17.4
2022-09-28T18:24:41.941Z,17.1
2022-09-28T18:29:51.128Z,16.8
2022-09-28T18:35:29.324Z,16.4
2022-09-28T18:41:08.174Z,16.1
2022-09-28T18:46:31.730Z,15.8
2022-09-28T18:51:54.756Z,15.6
2022-09-28T18:57:32.437Z,15.3
2022-09-28T19:03:34.644Z,15.1
2022-09-28T19:09:01.689Z,15
2022-09-28T19:14:40.396Z,14.9
2022-09-28T19:20:19.403Z,14.9
2022-09-28T19:25:56.489Z,14.9
2022-09-28T19:31:37.830Z,14.8
2022-09-28T19:37:05.615Z,14.8
2022-09-28T19:42:43.109Z,14.9
2022-09-28T19:48:20.485Z,15.1
2022-09-28T19:53:59.518Z,15.3
2022-09-28T19:59:41.078Z,15.6
2022-09-28T20:05:08.611Z,15.8
2022-09-28T20:10:33.283Z,16.1
2022-09-28T20:16:17.065Z,16.2
2022-09-28T20:21:43.582Z,16.3
2022-09-28T20:27:25.560Z,16.1
2022-09-28T20:33:07.149Z,15.9
2022-09-28T20:38:57.785Z,15.7
2022-09-28T20:44:24.244Z,15.4
2022-09-28T20:49:46.670Z,15.3
2022-09-28T20:55:24.315Z,15.1
2022-09-28T21:01:06.867Z,14.9
2022-09-28T21:06:46.443Z,14.9
2022-09-28T21:12:23.452Z,14.7
2022-09-28T21:18:02.247Z,14.6
2022-09-28T21:23:42.565Z,14.5
2022-09-28T21:29:18.203Z,14.4
2022-09-28T21:34:56.340Z,14.3
2022-09-28T21:40:05.690Z,14.1
2022-09-28T21:45:42.311Z,14
2022-09-28T21:51:05.128Z,13.8
2022-09-28T21:56:41.678Z,13.8
2022-09-28T22:02:19.350Z,13.6
2022-09-28T22:07:57.769Z,13.5
2022-09-28T22:13:35.746Z,13.4
2022-09-28T22:19:13.597Z,13.4
2022-09-28T22:24:36.737Z,13.3
2022-09-28T22:29:57.939Z,13.3
2022-09-28T22:35:35.341Z,13.3
2022-09-28T22:41:13.681Z,13.4
2022-09-28T22:46:54.248Z,13.4
2022-09-28T22:52:15.507Z,13.4
2022-09-28T22:57:37.988Z,13.6
2022-09-28T23:03:15.250Z,13.6
2022-09-28T23:08:37.125Z,13.6
2022-09-28T23:14:00.032Z,13.6
2022-09-28T23:19:21.856Z,13.6
2022-09-28T23:24:43.692Z,13.6
2022-09-28T23:30:21.535Z,13.5
2022-09-28T23:35:53.808Z,13.4
2022-09-28T23:41:15.113Z,13.4
2022-09-28T23:46:55.088Z,13.3
2022-09-28T23:52:32.078Z,13.3
2022-09-28T23:58:09.186Z,13.3
